Time;durP1;ratioP1;P1;durP2;ratioP2;P2;SDS_P1;SDS_P2;PMS_P1;PMS_P2;Temp;Humidity;BMP_temperature;BMP_pressure;BME280_temperature;BME280_humidity;BME280_pressure;Samples;Min_cycle;Max_cycle;Signal;HPM_P1;HPM_P2
2023/12/12 00:01:20;;;;;;;4.20;2.30;;;;;;;10.41;100.00;99793.09;5055545;28;20128;-72
2023/12/12 00:03:46;;;;;;;2.90;1.60;;;;;;;10.32;100.00;99800.69;5058607;28;20033;-72
2023/12/12 00:06:11;;;;;;;7.15;2.08;;;;;;;10.38;100.00;99807.28;5062472;28;20047;-72
2023/12/12 00:08:37;;;;;;;5.60;2.55;;;;;;;10.42;100.00;99800.00;5062409;28;20040;-72
2023/12/12 00:11:04;;;;;;;3.55;2.10;;;;;;;10.43;100.00;99794.25;5064948;28;20482;-72
2023/12/12 00:13:29;;;;;;;4.07;1.75;;;;;;;10.44;100.00;99795.81;5046421;28;20070;-72
2023/12/12 00:15:56;;;;;;;5.50;2.28;;;;;;;10.44;100.00;99798.50;5072368;28;20029;-72
2023/12/12 00:18:21;;;;;;;4.70;2.30;;;;;;;10.44;100.00;99801.19;5056794;28;20206;-72
2023/12/12 00:20:47;;;;;;;2.65;1.95;;;;;;;10.46;100.00;99793.50;5058708;28;20743;-72
2023/12/12 00:23:12;;;;;;;5.20;2.92;;;;;;;10.47;100.00;99800.44;5044580;28;20028;-72
2023/12/12 00:25:38;;;;;;;4.13;2.40;;;;;;;10.47;100.00;99805.06;5058218;28;20115;-72
2023/12/12 00:28:03;;;;;;;3.30;2.22;;;;;;;10.42;100.00;99803.47;5047712;28;20031;-72
2023/12/12 00:30:29;;;;;;;5.75;2.53;;;;;;;10.21;100.00;99802.53;5062689;28;20039;-72
2023/12/12 00:32:54;;;;;;;3.50;1.80;;;;;;;10.32;100.00;99806.09;5066579;28;20032;-72
2023/12/12 00:35:20;;;;;;;6.07;2.45;;;;;;;10.32;100.00;99814.16;5063716;28;20406;-72
2023/12/12 00:37:45;;;;;;;3.55;2.25;;;;;;;10.33;100.00;99815.72;5059030;28;20490;-72
2023/12/12 00:40:11;;;;;;;3.97;1.90;;;;;;;10.34;100.00;99815.34;5065625;28;20426;-72
2023/12/12 00:42:36;;;;;;;2.13;1.50;;;;;;;10.35;100.00;99824.19;5058078;28;20053;-72
2023/12/12 00:45:02;;;;;;;3.75;1.95;;;;;;;10.34;100.00;99823.41;5059293;28;20036;-73
2023/12/12 00:47:28;;;;;;;5.30;2.50;;;;;;;10.21;100.00;99830.22;5070998;28;20087;-73
2023/12/12 00:49:53;;;;;;;4.05;2.60;;;;;;;10.22;100.00;99829.06;5056094;28;20029;-72
2023/12/12 00:52:19;;;;;;;4.32;1.95;;;;;;;10.23;100.00;99838.69;5053901;28;20020;-72
2023/12/12 00:54:45;;;;;;;6.20;2.95;;;;;;;10.22;100.00;99842.53;5056335;28;20040;-72
2023/12/12 00:57:10;;;;;;;7.15;3.38;;;;;;;10.24;100.00;99851.00;5069539;28;20032;-72
2023/12/12 00:59:35;;;;;;;8.82;2.83;;;;;;;10.24;100.00;99859.06;5057308;28;20033;-72
2023/12/12 01:02:01;;;;;;;6.63;2.70;;;;;;;10.23;100.00;99860.22;5056232;28;20123;-72
2023/12/12 01:04:26;;;;;;;7.10;3.33;;;;;;;10.23;100.00;99860.22;5059868;28;20036;-72
2023/12/12 01:06:52;;;;;;;9.07;3.65;;;;;;;10.29;100.00;99864.13;5061355;28;20119;-72
2023/12/12 01:09:18;;;;;;;7.63;3.25;;;;;;;10.27;100.00;99860.25;5060817;28;20086;-73
2023/12/12 01:11:44;;;;;;;6.47;3.00;;;;;;;10.26;100.00;99861.41;5057826;28;20048;-72
2023/12/12 01:14:09;;;;;;;10.20;2.95;;;;;;;10.27;100.00;99871.03;5055426;28;20032;-72
2023/12/12 01:16:35;;;;;;;5.30;2.15;;;;;;;10.26;100.00;99869.47;5072837;28;20126;-72
2023/12/12 01:19:00;;;;;;;4.75;2.50;;;;;;;10.31;100.00;99869.13;5054411;28;20074;-72
2023/12/12 01:21:26;;;;;;;7.63;2.22;;;;;;;10.24;100.00;99875.22;5057627;28;20029;-72
2023/12/12 01:23:55;;;;;;;6.13;2.72;;;;;;;10.24;100.00;99871.78;5065000;28;20506;-72
2023/12/12 01:26:22;;;;;;;11.02;2.60;;;;;;;10.26;100.00;99872.94;5058436;28;20028;-72
2023/12/12 01:28:48;;;;;;;6.30;3.28;;;;;;;10.27;100.00;99877.19;5062328;28;20040;-72
2023/12/12 01:31:15;;;;;;;6.72;3.25;;;;;;;10.31;100.00;99877.97;5057369;28;20032;-72
2023/12/12 01:33:41;;;;;;;11.07;3.45;;;;;;;10.25;100.00;99881.38;5065931;28;20119;-72
2023/12/12 01:36:07;;;;;;;6.72;3.03;;;;;;;10.16;100.00;99889.78;5056267;28;20040;-72
2023/12/12 01:38:32;;;;;;;9.38;3.08;;;;;;;10.21;100.00;99894.81;5072444;28;20078;-72
2023/12/12 01:40:58;;;;;;;7.78;3.25;;;;;;;10.17;100.00;99887.84;5061309;28;20053;-72
2023/12/12 01:43:28;;;;;;;7.97;2.72;;;;;;;10.12;100.00;99891.66;5065038;28;20117;-72
2023/12/12 01:46:00;;;;;;;17.77;2.88;;;;;;;10.17;100.00;99898.59;5056555;28;20141;-72
2023/12/12 01:48:26;;;;;;;5.90;3.15;;;;;;;10.18;100.00;99900.16;5073082;28;20165;-72
2023/12/12 01:50:53;;;;;;;5.90;2.55;;;;;;;10.14;100.00;99899.34;5068254;28;20039;-72
2023/12/12 01:53:27;;;;;;;3.92;2.30;;;;;;;10.13;100.00;99898.56;5064303;28;20024;-72
2023/12/12 01:55:53;;;;;;;9.20;3.42;;;;;;;10.16;100.00;99892.47;5063058;28;20399;-72
2023/12/12 01:58:20;;;;;;;7.82;3.65;;;;;;;10.17;100.00;99893.22;5065187;28;20037;-73
2023/12/12 02:00:47;;;;;;;8.88;3.85;;;;;;;10.15;100.00;99893.59;5057728;28;20413;-73
2023/12/12 02:03:14;;;;;;;9.25;3.28;;;;;;;10.14;100.00;99889.38;5053274;28;20024;-72
2023/12/12 02:05:41;;;;;;;7.57;2.72;;;;;;;10.13;100.00;99898.56;5051669;28;20040;-72
2023/12/12 02:08:07;;;;;;;7.30;2.40;;;;;;;10.13;100.00;99897.78;5055452;28;20563;-72
2023/12/12 02:10:33;;;;;;;7.55;3.58;;;;;;;10.11;100.00;99900.06;5057566;28;20058;-73
2023/12/12 02:12:59;;;;;;;3.10;1.50;;;;;;;10.03;100.00;99896.50;5063274;28;20028;-72
2023/12/12 02:15:27;;;;;;;7.82;2.53;;;;;;;10.06;100.00;99893.09;5065649;28;20041;-72
2023/12/12 02:17:52;;;;;;;3.28;1.65;;;;;;;10.08;100.00;99890.81;5063648;28;20064;-72
2023/12/12 02:20:18;;;;;;;6.68;2.35;;;;;;;10.10;100.00;99899.31;5063062;28;20043;-72
2023/12/12 02:22:44;;;;;;;10.50;3.63;;;;;;;10.12;100.00;99897.03;5066015;28;20056;-72
2023/12/12 02:25:10;;;;;;;10.25;3.67;;;;;;;10.07;100.00;99888.47;5062522;28;20018;-72
2023/12/12 02:27:38;;;;;;;9.98;3.45;;;;;;;10.05;100.00;99886.16;5063352;28;20040;-72
2023/12/12 02:30:08;;;;;;;6.25;2.80;;;;;;;10.04;100.00;99882.69;5053888;28;20032;-72
2023/12/12 02:32:34;;;;;;;2.95;2.03;;;;;;;10.07;100.00;99891.94;5057516;28;20082;-73
2023/12/12 02:35:00;;;;;;;7.10;2.28;;;;;;;10.11;100.00;99897.38;5058511;28;20049;-73
2023/12/12 02:37:26;;;;;;;4.45;2.22;;;;;;;9.98;100.00;99891.47;5058432;28;20032;-72
2023/12/12 02:39:51;;;;;;;9.30;3.17;;;;;;;9.97;100.00;99892.59;5067275;28;20112;-72
2023/12/12 02:42:17;;;;;;;12.88;2.50;;;;;;;9.85;100.00;99887.50;5079598;28;20376;-72
2023/12/12 02:44:42;;;;;;;4.78;2.72;;;;;;;9.95;100.00;99892.97;5043710;28;20033;-72
2023/12/12 02:47:08;;;;;;;6.57;2.72;;;;;;;10.00;100.00;99889.97;5058989;28;20041;-72
2023/12/12 02:49:33;;;;;;;8.88;3.08;;;;;;;10.00;100.00;99889.97;5059391;28;20040;-72
2023/12/12 02:51:59;;;;;;;5.25;2.78;;;;;;;9.91;100.00;99891.41;5058042;28;20402;-72
2023/12/12 02:54:27;;;;;;;4.75;2.83;;;;;;;9.85;100.00;99890.19;5070449;28;20020;-72
2023/12/12 02:56:54;;;;;;;7.40;2.88;;;;;;;9.73;100.00;99898.50;5059679;28;20032;-72
2023/12/12 02:59:19;;;;;;;5.95;2.33;;;;;;;9.69;100.00;99898.47;5059108;28;20032;-72
2023/12/12 03:01:47;;;;;;;8.02;3.25;;;;;;;9.77;100.00;99894.72;5056563;28;20041;-72
2023/12/12 03:04:12;;;;;;;6.70;2.80;;;;;;;9.84;100.00;99894.78;5057901;28;20067;-72
2023/12/12 03:06:38;;;;;;;6.28;2.45;;;;;;;9.85;100.00;99899.00;5063410;28;20060;-72
2023/12/12 03:09:03;;;;;;;5.80;2.45;;;;;;;9.76;100.00;99908.50;5064275;28;20501;-72
2023/12/12 03:11:29;;;;;;;5.13;1.95;;;;;;;9.80;100.00;99901.25;5065225;28;20032;-72
2023/12/12 03:13:54;;;;;;;5.60;2.15;;;;;;;9.82;100.00;99901.66;5060173;28;20132;-72
2023/12/12 03:16:20;;;;;;;3.33;1.42;;;;;;;9.81;100.00;99900.88;5061427;28;20395;-72
2023/12/12 03:18:48;;;;;;;7.22;2.55;;;;;;;9.83;100.00;99901.28;5059507;28;20025;-72
2023/12/12 03:21:13;;;;;;;4.38;1.92;;;;;;;9.85;100.00;99898.25;5062180;28;20046;-72
2023/12/12 03:23:39;;;;;;;3.80;1.75;;;;;;;9.82;100.00;99909.75;5061133;28;20514;-72
2023/12/12 03:26:08;;;;;;;6.22;2.72;;;;;;;9.90;100.00;99906.78;5060227;28;20124;-72
2023/12/12 03:28:36;;;;;;;7.78;2.40;;;;;;;9.82;100.00;99894.38;5067593;28;20087;-72
2023/12/12 03:31:03;;;;;;;11.05;2.92;;;;;;;9.76;100.00;99906.59;5057059;28;20032;-72
2023/12/12 03:33:29;;;;;;;6.88;2.70;;;;;;;9.64;100.00;99890.72;5056317;28;20052;-72
2023/12/12 03:35:54;;;;;;;6.03;2.10;;;;;;;9.67;100.00;99898.06;5058358;28;20020;-72
2023/12/12 03:38:19;;;;;;;12.65;3.13;;;;;;;9.67;100.00;99906.13;5072627;28;20040;-72
2023/12/12 03:40:45;;;;;;;6.93;3.15;;;;;;;9.74;100.00;99906.19;5067658;28;20406;-73
2023/12/12 03:43:10;;;;;;;5.30;2.33;;;;;;;9.63;100.00;99902.63;5081824;28;20451;-72
2023/12/12 03:45:36;;;;;;;5.53;2.10;;;;;;;9.65;100.00;99907.63;5065398;28;20075;-72
2023/12/12 03:48:01;;;;;;;17.77;2.03;;;;;;;9.75;100.00;99897.00;5063136;28;20057;-72
2023/12/12 03:50:29;;;;;;;4.65;1.92;;;;;;;9.72;100.00;99900.41;5061204;28;20048;-72
2023/12/12 03:52:55;;;;;;;6.20;1.98;;;;;;;9.62;100.00;99903.00;5063077;28;20521;-72
2023/12/12 03:55:20;;;;;;;5.57;2.40;;;;;;;9.68;100.00;99896.13;5068550;28;20490;-73
2023/12/12 03:57:47;;;;;;;6.72;2.30;;;;;;;9.59;100.00;99896.44;5060721;28;20536;-72
2023/12/12 04:00:13;;;;;;;4.30;2.15;;;;;;;9.60;100.00;99907.97;5071863;28;20033;-72
2023/12/12 04:02:39;;;;;;;5.50;2.17;;;;;;;9.61;100.00;99907.59;5056937;28;20090;-72
2023/12/12 04:05:05;;;;;;;7.43;3.13;;;;;;;9.68;100.00;99907.66;5057659;28;20024;-73
2023/12/12 04:07:30;;;;;;;6.10;2.53;;;;;;;9.68;100.00;99907.66;5060608;28;20450;-73
2023/12/12 04:09:55;;;;;;;7.70;2.60;;;;;;;9.61;100.00;99899.53;5060818;28;20028;-72
2023/12/12 04:12:21;;;;;;;8.32;2.25;;;;;;;9.65;100.00;99902.25;5060795;28;20045;-72
2023/12/12 04:14:47;;;;;;;5.05;2.05;;;;;;;9.73;100.00;99903.88;5060978;28;20044;-72
2023/12/12 04:17:13;;;;;;;6.85;1.83;;;;;;;9.75;100.00;99902.38;5058557;28;20032;-72
2023/12/12 04:19:38;;;;;;;3.70;1.67;;;;;;;9.74;100.00;99895.44;5074002;28;20044;-72
2023/12/12 04:22:04;;;;;;;7.28;2.00;;;;;;;9.79;100.00;99900.47;5062147;28;20028;-72
2023/12/12 04:24:29;;;;;;;8.27;2.70;;;;;;;9.71;100.00;99903.47;5065203;28;20464;-73
2023/12/12 04:26:55;;;;;;;6.30;2.90;;;;;;;9.71;100.00;99904.25;5060213;28;20494;-73
2023/12/12 04:29:20;;;;;;;7.15;1.83;;;;;;;9.76;100.00;99911.97;5061385;28;20038;-72
2023/12/12 04:31:49;;;;;;;5.03;2.67;;;;;;;9.76;100.00;99914.66;5060534;28;20115;-72
2023/12/12 04:34:15;;;;;;;5.65;2.40;;;;;;;9.74;100.00;99918.84;5057389;28;20107;-73
2023/12/12 04:36:41;;;;;;;6.57;2.25;;;;;;;9.70;100.00;99907.28;5071714;28;20064;-72
2023/12/12 04:39:11;;;;;;;6.28;2.28;;;;;;;9.77;100.00;99920.84;5074468;28;20033;-73
2023/12/12 04:41:40;;;;;;;5.57;2.42;;;;;;;9.71;100.00;99920.38;5072059;28;20136;-73
2023/12/12 04:44:07;;;;;;;5.55;2.60;;;;;;;9.67;100.00;99919.56;5059618;28;20032;-72
2023/12/12 04:46:32;;;;;;;6.05;2.25;;;;;;;9.63;100.00;99917.97;5063721;28;20115;-72
2023/12/12 04:49:00;;;;;;;5.70;1.98;;;;;;;9.65;100.00;99924.53;5061160;28;20775;-73
2023/12/12 04:51:25;;;;;;;6.35;2.30;;;;;;;9.66;100.00;99923.38;5062929;28;20036;-73
2023/12/12 04:53:51;;;;;;;5.15;2.47;;;;;;;9.63;100.00;99912.59;5063420;28;20045;-73
2023/12/12 04:56:16;;;;;;;12.10;2.15;;;;;;;9.65;100.00;99921.84;5057933;28;20029;-72
2023/12/12 04:58:42;;;;;;;6.93;2.65;;;;;;;9.71;100.00;99917.69;5053634;28;20033;-72
2023/12/12 05:01:07;;;;;;;5.97;2.10;;;;;;;9.69;100.00;99911.91;5053034;28;20029;-72
2023/12/12 05:03:33;;;;;;;5.32;2.03;;;;;;;9.69;100.00;99919.19;5053937;28;20519;-73
2023/12/12 05:05:58;;;;;;;8.93;2.08;;;;;;;9.70;100.00;99918.03;5057022;28;20381;-73
2023/12/12 05:08:23;;;;;;;6.93;2.60;;;;;;;9.65;100.00;99921.06;5056178;28;20033;-73
2023/12/12 05:10:49;;;;;;;11.02;2.35;;;;;;;9.68;100.00;99931.06;5058019;28;20034;-73
2023/12/12 05:13:14;;;;;;;8.07;2.25;;;;;;;9.73;100.00;99946.91;5055773;28;20028;-73
2023/12/12 05:15:40;;;;;;;9.02;2.65;;;;;;;9.67;100.00;99942.97;5069572;28;20036;-73
2023/12/12 05:18:07;;;;;;;9.05;2.53;;;;;;;9.64;100.00;99941.78;5056620;28;20052;-74
2023/12/12 05:20:33;;;;;;;7.32;3.15;;;;;;;9.64;100.00;99941.03;5058110;28;20036;-73
2023/12/12 05:22:58;;;;;;;4.68;1.92;;;;;;;9.71;100.00;99943.81;5054487;28;20039;-73
2023/12/12 05:25:24;;;;;;;6.18;2.28;;;;;;;9.71;100.00;99941.91;5070713;28;20476;-72
2023/12/12 05:27:49;;;;;;;4.60;2.17;;;;;;;9.62;100.00;99944.06;5052254;28;20076;-73
2023/12/12 05:30:15;;;;;;;10.13;2.85;;;;;;;9.67;100.00;99942.97;5056199;28;20048;-72
2023/12/12 05:32:41;;;;;;;5.32;2.00;;;;;;;9.66;100.00;99952.16;5051088;28;20032;-72
2023/12/12 05:35:08;;;;;;;5.95;2.00;;;;;;;9.64;100.00;99949.09;5071335;28;20522;-73
2023/12/12 05:37:33;;;;;;;10.13;2.28;;;;;;;9.66;100.00;99954.84;5060649;28;20115;-73
2023/12/12 05:39:59;;;;;;;11.25;2.55;;;;;;;9.62;100.00;99957.50;5057496;28;20710;-72
2023/12/12 05:42:25;;;;;;;2.95;1.85;;;;;;;9.66;100.00;99965.59;5051423;28;21841;-73
2023/12/12 05:44:53;;;;;;;4.80;1.63;;;;;;;9.66;100.00;99969.09;5056701;28;20033;-73
2023/12/12 05:47:19;;;;;;;7.30;2.90;;;;;;;9.70;100.00;99971.81;5058037;28;20028;-73
2023/12/12 05:49:44;;;;;;;2.95;1.80;;;;;;;9.73;100.00;99971.09;5056066;28;20044;-73
2023/12/12 05:52:10;;;;;;;11.82;2.67;;;;;;;9.70;100.00;99977.19;5073289;28;20128;-73
2023/12/12 05:54:36;;;;;;;5.97;1.83;;;;;;;9.69;100.00;99970.28;5052108;28;20035;-72
2023/12/12 05:57:02;;;;;;;4.00;1.38;;;;;;;9.70;100.00;99974.50;5054113;28;20025;-73
2023/12/12 05:59:27;;;;;;;6.55;1.73;;;;;;;9.66;100.00;99969.09;5056396;28;20407;-72
2023/12/12 06:01:53;;;;;;;6.32;2.20;;;;;;;9.72;100.00;99974.91;5060152;28;20078;-72
2023/12/12 06:04:18;;;;;;;4.55;1.75;;;;;;;9.71;100.00;99973.38;5046121;28;20419;-72
2023/12/12 06:06:44;;;;;;;2.80;1.92;;;;;;;9.66;100.00;99981.75;5053326;28;20032;-73
2023/12/12 06:09:13;;;;;;;4.43;1.95;;;;;;;9.67;100.00;99967.97;5055504;28;20024;-72
2023/12/12 06:11:39;;;;;;;4.80;1.70;;;;;;;9.68;100.00;99982.16;5058025;28;20101;-73
2023/12/12 06:14:05;;;;;;;5.35;1.75;;;;;;;9.78;100.00;99968.84;5074951;28;20502;-72
2023/12/12 06:16:31;;;;;;;4.75;1.83;;;;;;;9.79;100.00;99973.06;5073029;28;20078;-73
2023/12/12 06:18:57;;;;;;;7.97;1.75;;;;;;;9.68;100.00;99972.19;5056011;28;20029;-72
2023/12/12 06:21:23;;;;;;;5.50;2.03;;;;;;;9.66;100.00;99976.38;5057506;28;20047;-72
2023/12/12 06:23:48;;;;;;;7.53;1.83;;;;;;;9.62;100.00;99976.31;5070153;28;20043;-72
2023/12/12 06:26:16;;;;;;;7.28;2.97;;;;;;;9.69;100.00;99987.19;5056685;28;20043;-73
2023/12/12 06:28:41;;;;;;;9.98;2.80;;;;;;;9.64;100.00;99984.81;5058386;28;20117;-73
2023/12/12 06:31:07;;;;;;;2.97;2.17;;;;;;;9.66;100.00;99992.50;5055046;28;20103;-72
2023/12/12 06:33:34;;;;;;;5.05;2.22;;;;;;;9.73;100.00;99988.00;5053815;28;20099;-73
2023/12/12 06:35:59;;;;;;;1.67;1.17;;;;;;;9.70;100.00;99986.03;5051334;28;20040;-73
2023/12/12 06:38:25;;;;;;;7.60;1.63;;;;;;;9.72;100.00;99985.66;5055707;28;20025;-73
2023/12/12 06:40:51;;;;;;;6.78;1.48;;;;;;;9.81;100.00;99988.88;5057584;28;20021;-74
2023/12/12 06:43:17;;;;;;;7.07;2.35;;;;;;;9.80;100.00;99982.72;5058995;28;20387;-73
2023/12/12 06:45:42;;;;;;;9.55;2.80;;;;;;;9.71;100.00;99984.91;5054533;28;20032;-72
2023/12/12 06:48:07;;;;;;;7.88;2.47;;;;;;;9.79;100.00;99989.22;5057355;28;20474;-73
2023/12/12 06:50:36;;;;;;;4.10;1.58;;;;;;;9.78;99.87;99984.97;5068709;28;20576;-74
2023/12/12 06:53:01;;;;;;;2.95;1.38;;;;;;;9.70;100.00;99982.56;5064423;28;20024;-74
2023/12/12 06:55:27;;;;;;;4.78;1.95;;;;;;;9.69;100.00;99978.34;5063833;28;20044;-73
2023/12/12 06:57:52;;;;;;;5.20;2.25;;;;;;;9.66;100.00;99981.75;5061902;28;20029;-73
2023/12/12 07:00:19;;;;;;;7.28;1.83;;;;;;;9.70;100.00;99980.66;5067399;28;20479;-72
2023/12/12 07:02:45;;;;;;;5.00;1.75;;;;;;;9.65;100.00;99977.50;5063567;28;20123;-73
2023/12/12 07:05:10;;;;;;;7.50;2.85;;;;;;;9.68;100.00;99974.09;5064033;28;20400;-72
2023/12/12 07:07:36;;;;;;;5.95;1.80;;;;;;;9.71;100.00;99978.75;5062204;28;20029;-73
2023/12/12 07:10:06;;;;;;;9.27;2.70;;;;;;;9.62;100.00;99983.63;5059282;28;20063;-73
2023/12/12 07:12:32;;;;;;;10.27;2.67;;;;;;;9.65;100.00;99970.22;5077608;28;20110;-73
2023/12/12 07:15:00;;;;;;;9.35;2.35;;;;;;;9.63;100.00;99977.88;5060515;28;20024;-73
2023/12/12 07:17:25;;;;;;;11.07;2.97;;;;;;;9.63;100.00;99982.47;5062045;28;20128;-73
2023/12/12 07:19:50;;;;;;;5.35;2.22;;;;;;;9.64;100.00;99979.41;5065129;28;20037;-73
2023/12/12 07:22:16;;;;;;;5.95;1.98;;;;;;;9.64;100.00;99978.66;5064483;28;20052;-73
2023/12/12 07:24:41;;;;;;;8.48;2.60;;;;;;;9.70;100.00;99977.97;5067277;28;20121;-73
2023/12/12 07:27:07;;;;;;;4.60;1.73;;;;;;;9.63;100.00;99975.19;5062239;28;20927;-74
2023/12/12 07:29:33;;;;;;;4.53;1.65;;;;;;;9.63;100.00;99985.94;5059127;28;20115;-74
2023/12/12 07:31:59;;;;;;;5.72;2.05;;;;;;;9.62;100.00;99983.63;5066009;28;20041;-74
2023/12/12 07:34:24;;;;;;;3.13;1.40;;;;;;;9.70;100.00;99987.94;5057296;28;20522;-74
2023/12/12 07:36:49;;;;;;;7.97;3.03;;;;;;;9.72;100.00;99991.03;5062966;28;20035;-74
2023/12/12 07:39:15;;;;;;;7.07;2.28;;;;;;;9.64;100.00;99992.09;5058411;28;20037;-74
2023/12/12 07:41:41;;;;;;;9.23;1.88;;;;;;;9.77;99.49;99990.72;5062925;28;20075;-73
2023/12/12 07:44:06;;;;;;;6.93;2.20;;;;;;;9.66;99.23;99992.50;5068199;28;20037;-74
2023/12/12 07:46:39;;;;;;;5.63;2.30;;;;;;;9.58;100.00;99993.56;5068543;28;20032;-73
2023/12/12 07:49:08;;;;;;;7.45;2.58;;;;;;;9.67;100.00;99999.44;5077417;28;20041;-74
2023/12/12 07:51:34;;;;;;;6.63;1.90;;;;;;;9.68;100.00;100003.66;5068656;28;20506;-73
2023/12/12 07:54:03;;;;;;;7.07;2.38;;;;;;;9.55;100.00;100000.44;5061456;28;20040;-73
2023/12/12 07:56:29;;;;;;;5.85;2.03;;;;;;;9.62;100.00;99994.38;5075195;28;20028;-73
2023/12/12 07:58:55;;;;;;;7.28;2.05;;;;;;;9.54;100.00;99998.13;5063006;28;20094;-74
2023/12/12 08:01:20;;;;;;;5.68;2.08;;;;;;;9.54;100.00;99993.50;5050246;28;20036;-72
2023/12/12 08:03:46;;;;;;;5.38;2.28;;;;;;;9.54;100.00;100003.50;5072739;28;20024;-72
2023/12/12 08:06:11;;;;;;;7.18;3.17;;;;;;;9.54;100.00;100004.25;5056860;28;20032;-73
2023/12/12 08:08:37;;;;;;;4.28;1.50;;;;;;;9.76;100.00;100008.78;5059700;28;20079;-71
2023/12/12 08:11:02;;;;;;;3.65;1.92;;;;;;;9.63;100.00;100004.78;5065354;28;20031;-72
2023/12/12 08:13:28;;;;;;;5.95;2.20;;;;;;;9.57;100.00;100006.22;5062163;28;20032;-72
2023/12/12 08:15:53;;;;;;;6.80;2.40;;;;;;;9.58;100.00;100007.00;5060718;28;20410;-72
2023/12/12 08:18:18;;;;;;;7.28;2.92;;;;;;;9.55;100.00;100013.09;5064400;28;20443;-72
2023/12/12 08:20:47;;;;;;;4.85;1.77;;;;;;;9.54;100.00;100020.38;5076892;28;20028;-73
2023/12/12 08:23:12;;;;;;;13.73;4.13;;;;;;;9.75;100.00;100022.59;5062937;28;20487;-73
2023/12/12 08:25:37;;;;;;;9.35;2.63;;;;;;;9.76;99.24;100014.16;5059284;28;20093;-72
2023/12/12 08:28:03;;;;;;;5.15;1.65;;;;;;;9.64;99.90;100014.38;5063347;28;20043;-72
2023/12/12 08:30:28;;;;;;;5.38;1.83;;;;;;;9.59;100.00;100017.38;5067131;28;20127;-73
2023/12/12 08:32:54;;;;;;;9.05;2.67;;;;;;;9.50;100.00;100013.41;5059616;28;20048;-73
2023/12/12 08:35:20;;;;;;;9.50;2.47;;;;;;;9.52;100.00;100005.75;5068122;28;20024;-73
2023/12/12 08:37:45;;;;;;;15.02;2.83;;;;;;;9.54;100.00;100011.56;5062064;28;20069;-73
2023/12/12 08:40:11;;;;;;;15.00;2.35;;;;;;;9.67;100.00;100010.19;5077053;28;20045;-73
2023/12/12 08:42:36;;;;;;;6.05;2.30;;;;;;;9.58;100.00;100015.06;5059988;28;20037;-73
2023/12/12 08:45:03;;;;;;;7.45;2.72;;;;;;;9.60;100.00;100010.84;5065379;28;20613;-73
2023/12/12 08:47:29;;;;;;;7.82;3.67;;;;;;;9.58;100.00;100015.81;5058020;28;20424;-73
2023/12/12 08:49:55;;;;;;;13.48;3.42;;;;;;;9.66;100.00;100019.38;5066331;28;20040;-73
2023/12/12 08:52:21;;;;;;;6.00;2.42;;;;;;;9.64;100.00;100016.31;5063306;28;20028;-73
2023/12/12 08:54:46;;;;;;;5.40;2.65;;;;;;;9.59;100.00;100013.91;5045165;28;20036;-73
2023/12/12 08:57:13;;;;;;;10.18;3.13;;;;;;;9.57;100.00;100010.81;5074655;28;20507;-73
2023/12/12 08:59:39;;;;;;;4.15;2.42;;;;;;;9.63;100.00;100010.16;5058545;28;20021;-74
2023/12/12 09:02:04;;;;;;;8.43;2.70;;;;;;;9.75;100.00;100009.94;5054971;28;20448;-73
2023/12/12 09:04:32;;;;;;;6.97;2.30;;;;;;;9.76;100.00;100014.16;5061034;28;20123;-73
2023/12/12 09:06:58;;;;;;;10.55;3.85;;;;;;;9.78;100.00;100011.09;5061024;28;20370;-74
2023/12/12 09:09:26;;;;;;;8.65;3.13;;;;;;;9.74;100.00;100010.28;5061690;28;20032;-74
2023/12/12 09:11:51;;;;;;;13.27;2.60;;;;;;;9.80;100.00;100014.19;5059721;28;20937;-74
2023/12/12 09:14:16;;;;;;;7.03;2.58;;;;;;;9.84;100.00;99999.66;5066448;28;20032;-73
2023/12/12 09:16:42;;;;;;;9.63;3.65;;;;;;;9.85;100.00;100011.94;5061044;28;20136;-73
2023/12/12 09:19:08;;;;;;;7.03;2.22;;;;;;;9.88;99.54;100010.47;5061959;28;20442;-74
2023/12/12 09:21:34;;;;;;;7.10;2.33;;;;;;;9.86;99.19;100010.03;5060281;28;20086;-73
2023/12/12 09:23:59;;;;;;;9.40;2.35;;;;;;;9.82;99.77;100014.59;5061306;28;20558;-73
2023/12/12 09:26:24;;;;;;;7.88;3.97;;;;;;;9.83;100.00;100016.16;5049274;28;20048;-74
2023/12/12 09:28:50;;;;;;;6.50;2.70;;;;;;;9.85;99.29;100006.56;5062558;28;20052;-73
2023/12/12 09:31:24;;;;;;;9.50;2.78;;;;;;;9.87;99.45;100017.00;5068827;28;20024;-74
2023/12/12 09:33:50;;;;;;;5.78;2.83;;;;;;;9.81;99.45;100015.75;5059135;28;20064;-74
2023/12/12 09:36:15;;;;;;;5.18;3.55;;;;;;;9.80;100.00;100016.88;5054946;28;20021;-74
2023/12/12 09:38:40;;;;;;;8.82;2.10;;;;;;;9.89;99.18;100012.03;5058291;28;20044;-74
2023/12/12 09:41:15;;;;;;;6.55;2.60;;;;;;;9.79;99.94;100012.66;5057503;28;20047;-73
2023/12/12 09:43:41;;;;;;;6.15;2.33;;;;;;;9.80;99.48;100014.19;5064571;28;20028;-74
2023/12/12 09:46:08;;;;;;;5.22;2.47;;;;;;;9.92;99.56;100019.34;5065734;28;20510;-74
2023/12/12 09:48:35;;;;;;;6.22;2.83;;;;;;;9.83;98.93;100016.16;5061313;28;20388;-73
2023/12/12 09:51:03;;;;;;;5.30;2.28;;;;;;;9.90;99.28;100014.34;5061917;28;20040;-74
2023/12/12 09:53:30;;;;;;;9.23;2.40;;;;;;;9.80;99.10;100017.66;5052882;28;20036;-74
2023/12/12 09:56:02;;;;;;;5.20;2.10;;;;;;;9.85;99.12;100013.88;5058226;28;20024;-73
2023/12/12 09:58:30;;;;;;;5.28;2.88;;;;;;;9.80;99.16;100009.59;5066503;28;20039;-73
2023/12/12 10:01:01;;;;;;;7.55;2.72;;;;;;;9.88;98.68;100007.78;5058047;28;20048;-73
2023/12/12 10:03:26;;;;;;;10.25;2.45;;;;;;;9.85;98.62;100011.19;5058211;28;20127;-73
2023/12/12 10:06:02;;;;;;;4.72;2.50;;;;;;;9.71;99.14;100011.78;5062248;28;20128;-73
2023/12/12 10:08:28;;;;;;;7.70;2.13;;;;;;;9.70;100.00;100010.22;5055736;28;20711;-73
2023/12/12 10:10:54;;;;;;;4.38;1.90;;;;;;;9.68;100.00;100006.34;5063086;28;20036;-72
2023/12/12 10:13:20;;;;;;;6.13;2.17;;;;;;;9.74;100.00;99996.81;5060457;28;20049;-73
2023/12/12 10:15:45;;;;;;;6.70;1.85;;;;;;;9.79;99.91;99996.53;5044643;28;20036;-73
2023/12/12 10:18:10;;;;;;;3.97;2.28;;;;;;;9.84;99.69;99999.66;5062913;28;20414;-73
2023/12/12 10:20:36;;;;;;;5.65;1.77;;;;;;;9.87;99.12;100003.53;5064117;28;20559;-73
2023/12/12 10:23:04;;;;;;;8.25;1.80;;;;;;;9.81;99.37;100005.00;5060879;28;20068;-73
2023/12/12 10:25:31;;;;;;;4.10;1.45;;;;;;;9.81;100.00;99999.63;5055175;28;20036;-73
2023/12/12 10:27:58;;;;;;;3.78;1.67;;;;;;;9.90;99.93;99995.50;5042935;28;20111;-73
2023/12/12 10:30:23;;;;;;;4.47;1.45;;;;;;;9.99;99.66;99995.22;5059224;28;20036;-74
2023/12/12 10:32:53;;;;;;;3.75;1.27;;;;;;;10.02;98.36;99994.50;5065766;28;20070;-73
2023/12/12 10:35:20;;;;;;;2.72;1.90;;;;;;;9.98;98.69;99994.47;5071012;28;20021;-74
2023/12/12 10:37:49;;;;;;;3.47;2.05;;;;;;;9.92;99.00;99989.75;5048698;28;20032;-74
2023/12/12 10:40:21;;;;;;;7.47;2.38;;;;;;;10.03;99.00;99985.28;5068559;28;20108;-74
2023/12/12 10:42:50;;;;;;;5.75;1.83;;;;;;;9.98;99.29;99977.53;5059807;28;20507;-73
2023/12/12 10:45:16;;;;;;;6.05;1.90;;;;;;;10.01;98.83;99974.88;5075545;28;20098;-73
2023/12/12 10:47:50;;;;;;;5.40;2.63;;;;;;;9.94;98.82;99979.41;5060389;28;20418;-73
2023/12/12 10:50:17;;;;;;;4.47;2.55;;;;;;;9.85;99.49;99978.94;5063842;28;20029;-73
2023/12/12 10:52:46;;;;;;;3.35;1.83;;;;;;;9.86;99.75;99975.88;5060022;28;20442;-72
2023/12/12 10:55:14;;;;;;;4.35;2.05;;;;;;;10.00;99.40;99970.66;5064508;28;20379;-73
2023/12/12 10:57:44;;;;;;;2.70;1.50;;;;;;;10.00;98.83;99964.50;5058879;28;20047;-73
2023/12/12 11:00:12;;;;;;;5.22;2.35;;;;;;;10.03;98.62;99961.84;5066226;28;20051;-73
2023/12/12 11:02:41;;;;;;;5.22;1.48;;;;;;;10.05;98.35;99966.84;5059229;28;20037;-73
2023/12/12 11:05:12;;;;;;;4.55;1.95;;;;;;;9.95;99.00;99957.53;5063237;28;20041;-73
2023/12/12 11:07:39;;;;;;;4.70;1.85;;;;;;;9.90;99.71;99959.78;5079610;28;20082;-73
2023/12/12 11:10:08;;;;;;;3.97;1.85;;;;;;;9.95;99.70;99956.75;5061573;28;20037;-73
2023/12/12 11:12:48;;;;;;;5.05;1.80;;;;;;;10.07;97.12;99947.66;5068620;28;20058;-73
2023/12/12 11:15:15;;;;;;;4.05;1.63;;;;;;;9.87;98.64;99950.50;5067684;28;20487;-73
2023/12/12 11:17:41;;;;;;;5.32;1.63;;;;;;;9.86;99.90;99953.56;5059771;28;20086;-73
2023/12/12 11:20:14;;;;;;;3.90;1.55;;;;;;;9.85;99.33;99944.72;5065092;28;20036;-73
2023/12/12 11:22:42;;;;;;;4.38;2.30;;;;;;;9.93;98.22;99950.97;5057260;28;20399;-73
2023/12/12 11:25:10;;;;;;;4.60;1.98;;;;;;;9.87;98.24;99939.75;5080647;28;20033;-73